Погода Пуэрто-Игуасуна неделю

Мисьонес, Аргентина

21 - 27 июля
  • 21июля
    Сегодня
    +14°
    +26°
    Ясно и безоблачно
    ВремяПогодаТемператураВлажностьДавлениеВетер, м/сВероятность осадков
    00:00Ясно и безоблачно+18°C91 %748 мм3.0 м/с5 %
    03:00Ясно и безоблачно+17°C85 %748 мм2.5 м/с5 %
    06:00Ясно и безоблачно+16°C87 %748 мм3.0 м/с5 %
    09:00Ясно и безоблачно+17°C82 %750 мм2.9 м/с5 %
    12:00Ясно и безоблачно+23°C59 %750 мм2.7 м/с5 %
    15:00Ясно и безоблачно+26°C54 %748 мм2.5 м/с5 %
    18:00Ясно и безоблачно+22°C73 %748 мм1.8 м/с5 %
    21:00Ясно и безоблачно+19°C94 %749 мм2.5 м/с5 %
  • 22июля
    Понедельник
    +14°
    +26°
    Ясно и безоблачно
    ВремяПогодаТемператураВлажностьДавлениеВетер, м/сВероятность осадков
    00:00Ясно и безоблачно+17°C96 %749 мм2.7 м/с5 %
    03:00Ясно и безоблачно+15°C97 %749 мм2.8 м/с5 %
    06:00Ясно и безоблачно+15°C96 %749 мм3.0 м/с5 %
    09:00Ясно и безоблачно+17°C87 %751 мм2.8 м/с5 %
    12:00Ясно и безоблачно+23°C69 %751 мм2.5 м/с5 %
    15:00Ясно и безоблачно+26°C51 %749 мм2.3 м/с5 %
    18:00Ясно и безоблачно+22°C77 %749 мм2.0 м/с5 %
    21:00Ясно и безоблачно+19°C88 %749 мм2.7 м/с5 %
  • 23июля
    Вторник
    +15°
    +26°
    Небольшая облачность
    ВремяПогодаТемператураВлажностьДавлениеВетер, м/сВероятность осадков
    00:00Ясно и безоблачно+17°C89 %750 мм3.3 м/с5 %
    03:00Ясно и безоблачно+16°C89 %749 мм3.1 м/с5 %
    06:00Ясно и безоблачно+15°C89 %750 мм3.3 м/с5 %
    09:00Облачно с прояснениями+17°C84 %751 мм2.9 м/с5 %
    12:00Небольшая облачность+23°C65 %751 мм2.8 м/с5 %
    15:00Небольшая облачность+26°C59 %749 мм2.5 м/с5 %
    18:00Облачно с прояснениями+23°C84 %748 мм2.2 м/с5 %
    21:00Облачно с прояснениями+20°C85 %748 мм3.1 м/с5 %
  • 24июля
    Среда
    +17°
    +28°
    Практически безоблачно
    ВремяПогодаТемператураВлажностьДавлениеВетер, м/сВероятность осадков
    00:00Облачно с прояснениями+18°C81 %748 мм3.5 м/с5 %
    03:00Облачно с прояснениями+17°C82 %748 мм2.9 м/с5 %
    06:00Небольшая облачность+16°C80 %748 мм3.2 м/с5 %
    09:00Небольшая облачность+17°C77 %749 мм3.0 м/с5 %
    12:00Небольшая облачность+24°C58 %749 мм3.4 м/с5 %
    15:00Практически безоблачно+27°C55 %747 мм3.3 м/с5 %
    18:00Ясно и безоблачно+24°C73 %746 мм2.0 м/с5 %
    21:00Ясно и безоблачно+21°C84 %747 мм2.9 м/с5 %
  • 25июля
    Четверг
    +18°
    +28°
    Ясно и безоблачно
    ВремяПогодаТемператураВлажностьДавлениеВетер, м/сВероятность осадков
    00:00Ясно и безоблачно+19°C83 %748 мм2.9 м/с5 %
    03:00Ясно и безоблачно+18°C82 %747 мм2.5 м/с5 %
    06:00Практически безоблачно+18°C85 %747 мм3.0 м/с5 %
    09:00Ясно и безоблачно+20°C78 %748 мм3.1 м/с5 %
    12:00Облачно с прояснениями+25°C60 %748 мм4.0 м/с5 %
    15:00Ясно и безоблачно+28°C56 %746 мм2.9 м/с5 %
    18:00Ясно и безоблачно+25°C73 %746 мм1.5 м/с5 %
    21:00Небольшая облачность+21°C85 %746 мм2.3 м/с5 %
Мы используем cookies
Соглашаюсь